NCAR-RAP Real-Time Weather Data

Output produced by METARs form (10 April 2020  07:16 UTC)
found at http://weather.rap.ucar.edu/surface/
 
KTRI 100653Z 27011G19KT 10SM OVC085 10/M04 A2975 RMK AO2 SLP057 T01001039